Minot, Massachusetts
Current Conditions -  °F | °C
As of 6:54 PM on Thursday 27 Nov 2014 (Local Time) from KBOS Reporting Station
Overcast Overcast  
Wind Chill: 27°   Ceiling: 2100
Heat Index: 34°   Visibility: 10mi
Dew Point: 28°   Wind: 8mph
Humidity: 79%   Direction: 360°N
Pressure: 30"   Gusts: NA
Location:  42.24°N, 70.76°W
Report Text: KBOS 272354Z 36007KT 10SM BKN021 OVC045 01/M02 A3000 RMK AO2 SLP159 T00111022 10033 20011 53010
Loading
Personal Weather Stations






























Interactive Weather Map New forecast layout! Learn more

10-Day Weather Forecast

Advertisements
Track Severe Weather on mobile